sensor_id;sensor_type;location;lat;lon;timestamp;temperature;humidity
3818;DHT22;1924;48.078;11.516;2023-03-23T00:00:14;10.90;88.70
3818;DHT22;1924;48.078;11.516;2023-03-23T00:02:41;10.80;88.40
3818;DHT22;1924;48.078;11.516;2023-03-23T00:05:09;10.80;88.60
3818;DHT22;1924;48.078;11.516;2023-03-23T00:07:35;10.80;89.10
3818;DHT22;1924;48.078;11.516;2023-03-23T00:10:03;10.80;89.30
3818;DHT22;1924;48.078;11.516;2023-03-23T00:12:32;10.80;89.50
3818;DHT22;1924;48.078;11.516;2023-03-23T00:15:00;10.80;89.00
3818;DHT22;1924;48.078;11.516;2023-03-23T00:17:27;10.90;89.10
3818;DHT22;1924;48.078;11.516;2023-03-23T00:19:54;10.90;89.30
3818;DHT22;1924;48.078;11.516;2023-03-23T00:22:21;10.90;89.00
3818;DHT22;1924;48.078;11.516;2023-03-23T00:24:51;10.90;88.70
3818;DHT22;1924;48.078;11.516;2023-03-23T00:27:18;10.90;88.70
3818;DHT22;1924;48.078;11.516;2023-03-23T00:29:48;10.90;88.60
3818;DHT22;1924;48.078;11.516;2023-03-23T00:32:18;10.90;88.30
3818;DHT22;1924;48.078;11.516;2023-03-23T00:34:46;11.00;88.80
3818;DHT22;1924;48.078;11.516;2023-03-23T00:37:14;11.00;89.00
3818;DHT22;1924;48.078;11.516;2023-03-23T00:39:42;11.00;88.90
3818;DHT22;1924;48.078;11.516;2023-03-23T00:42:11;11.00;88.40
3818;DHT22;1924;48.078;11.516;2023-03-23T00:44:39;11.00;88.90
3818;DHT22;1924;48.078;11.516;2023-03-23T00:47:07;11.00;89.50
3818;DHT22;1924;48.078;11.516;2023-03-23T00:49:36;11.00;89.00
3818;DHT22;1924;48.078;11.516;2023-03-23T00:52:04;11.00;88.60
3818;DHT22;1924;48.078;11.516;2023-03-23T00:54:31;10.90;89.30
3818;DHT22;1924;48.078;11.516;2023-03-23T00:56:59;11.00;89.30
3818;DHT22;1924;48.078;11.516;2023-03-23T00:59:25;10.90;89.90
3818;DHT22;1924;48.078;11.516;2023-03-23T01:01:52;11.00;89.20
3818;DHT22;1924;48.078;11.516;2023-03-23T01:04:20;11.00;89.30
3818;DHT22;1924;48.078;11.516;2023-03-23T01:06:49;11.00;89.80
3818;DHT22;1924;48.078;11.516;2023-03-23T01:09:18;10.90;88.50
3818;DHT22;1924;48.078;11.516;2023-03-23T01:11:47;10.90;90.00
3818;DHT22;1924;48.078;11.516;2023-03-23T01:14:16;10.90;89.40
3818;DHT22;1924;48.078;11.516;2023-03-23T01:16:44;10.90;89.10
3818;DHT22;1924;48.078;11.516;2023-03-23T01:19:11;10.90;89.70
3818;DHT22;1924;48.078;11.516;2023-03-23T01:21:39;10.90;90.20
3818;DHT22;1924;48.078;11.516;2023-03-23T01:24:06;10.90;90.40
3818;DHT22;1924;48.078;11.516;2023-03-23T01:26:33;10.90;89.60
3818;DHT22;1924;48.078;11.516;2023-03-23T01:29:00;10.90;89.70
3818;DHT22;1924;48.078;11.516;2023-03-23T01:31:27;10.90;89.40
3818;DHT22;1924;48.078;11.516;2023-03-23T01:33:54;10.90;90.00
3818;DHT22;1924;48.078;11.516;2023-03-23T01:36:23;10.90;90.70
3818;DHT22;1924;48.078;11.516;2023-03-23T01:38:52;10.90;90.50
3818;DHT22;1924;48.078;11.516;2023-03-23T01:41:19;10.90;90.40
3818;DHT22;1924;48.078;11.516;2023-03-23T01:44:01;10.90;90.60
3818;DHT22;1924;48.078;11.516;2023-03-23T01:46:30;10.90;90.60
3818;DHT22;1924;48.078;11.516;2023-03-23T01:49:02;10.80;90.30
3818;DHT22;1924;48.078;11.516;2023-03-23T01:51:32;10.80;90.50
3818;DHT22;1924;48.078;11.516;2023-03-23T01:54:04;10.80;90.70
3818;DHT22;1924;48.078;11.516;2023-03-23T01:56:36;10.80;91.40
3818;DHT22;1924;48.078;11.516;2023-03-23T01:59:07;10.70;90.90
3818;DHT22;1924;48.078;11.516;2023-03-23T02:01:35;10.70;91.20
3818;DHT22;1924;48.078;11.516;2023-03-23T02:04:04;10.70;91.10
3818;DHT22;1924;48.078;11.516;2023-03-23T02:06:31;10.70;91.70
3818;DHT22;1924;48.078;11.516;2023-03-23T02:08:59;10.60;90.90
3818;DHT22;1924;48.078;11.516;2023-03-23T02:11:27;10.50;91.60
3818;DHT22;1924;48.078;11.516;2023-03-23T02:13:54;10.50;91.90
3818;DHT22;1924;48.078;11.516;2023-03-23T02:16:27;10.50;92.40
3818;DHT22;1924;48.078;11.516;2023-03-23T02:19:10;10.40;92.70
3818;DHT22;1924;48.078;11.516;2023-03-23T02:22:02;10.30;92.10
3818;DHT22;1924;48.078;11.516;2023-03-23T02:24:55;10.40;92.80
3818;DHT22;1924;48.078;11.516;2023-03-23T02:30:30;10.30;93.50
3818;DHT22;1924;48.078;11.516;2023-03-23T02:33:21;10.30;93.20
3818;DHT22;1924;48.078;11.516;2023-03-23T02:35:58;10.30;93.00
3818;DHT22;1924;48.078;11.516;2023-03-23T02:38:31;10.30;92.50
3818;DHT22;1924;48.078;11.516;2023-03-23T02:41:00;10.30;92.80
3818;DHT22;1924;48.078;11.516;2023-03-23T02:43:31;10.30;93.30
3818;DHT22;1924;48.078;11.516;2023-03-23T02:46:00;10.30;94.10
3818;DHT22;1924;48.078;11.516;2023-03-23T02:48:30;10.20;93.30
3818;DHT22;1924;48.078;11.516;2023-03-23T02:50:59;10.30;93.50
3818;DHT22;1924;48.078;11.516;2023-03-23T02:53:28;10.30;93.70
3818;DHT22;1924;48.078;11.516;2023-03-23T02:55:57;10.20;93.50
3818;DHT22;1924;48.078;11.516;2023-03-23T02:58:24;10.30;92.90
3818;DHT22;1924;48.078;11.516;2023-03-23T03:00:51;10.30;92.50
3818;DHT22;1924;48.078;11.516;2023-03-23T03:03:20;10.30;92.30
3818;DHT22;1924;48.078;11.516;2023-03-23T03:05:58;10.30;92.50
3818;DHT22;1924;48.078;11.516;2023-03-23T03:08:34;10.30;92.40
3818;DHT22;1924;48.078;11.516;2023-03-23T03:11:07;10.30;92.40
3818;DHT22;1924;48.078;11.516;2023-03-23T03:13:42;10.30;92.70
3818;DHT22;1924;48.078;11.516;2023-03-23T03:16:19;10.30;92.60
3818;DHT22;1924;48.078;11.516;2023-03-23T03:18:51;10.30;92.60
3818;DHT22;1924;48.078;11.516;2023-03-23T03:21:21;10.30;92.90
3818;DHT22;1924;48.078;11.516;2023-03-23T03:23:53;10.30;92.40
3818;DHT22;1924;48.078;11.516;2023-03-23T03:26:22;10.30;92.20
3818;DHT22;1924;48.078;11.516;2023-03-23T03:28:52;10.30;92.70
3818;DHT22;1924;48.078;11.516;2023-03-23T03:31:20;10.20;92.60
3818;DHT22;1924;48.078;11.516;2023-03-23T03:33:48;10.30;92.40
3818;DHT22;1924;48.078;11.516;2023-03-23T03:36:20;10.30;92.60
3818;DHT22;1924;48.078;11.516;2023-03-23T03:38:50;10.20;92.70
3818;DHT22;1924;48.078;11.516;2023-03-23T03:41:19;10.20;92.30
3818;DHT22;1924;48.078;11.516;2023-03-23T03:43:46;10.20;92.00
3818;DHT22;1924;48.078;11.516;2023-03-23T03:46:12;10.20;92.30
3818;DHT22;1924;48.078;11.516;2023-03-23T03:48:39;10.20;92.40
3818;DHT22;1924;48.078;11.516;2023-03-23T03:51:06;10.20;91.90
3818;DHT22;1924;48.078;11.516;2023-03-23T03:53:35;10.20;92.30
3818;DHT22;1924;48.078;11.516;2023-03-23T03:56:02;10.20;92.70
3818;DHT22;1924;48.078;11.516;2023-03-23T03:58:30;10.10;92.40
3818;DHT22;1924;48.078;11.516;2023-03-23T04:00:58;10.10;92.40
3818;DHT22;1924;48.078;11.516;2023-03-23T05:00:24;10.00;93.10
3818;DHT22;1924;48.078;11.516;2023-03-23T05:02:51;10.00;92.60
3818;DHT22;1924;48.078;11.516;2023-03-23T05:05:19;10.10;93.00
3818;DHT22;1924;48.078;11.516;2023-03-23T05:07:47;10.10;93.20
3818;DHT22;1924;48.078;11.516;2023-03-23T05:10:15;10.10;93.30
3818;DHT22;1924;48.078;11.516;2023-03-23T05:12:42;10.10;93.40
3818;DHT22;1924;48.078;11.516;2023-03-23T05:15:10;10.00;93.20
3818;DHT22;1924;48.078;11.516;2023-03-23T05:17:39;10.10;93.40
3818;DHT22;1924;48.078;11.516;2023-03-23T05:20:11;10.10;93.30
3818;DHT22;1924;48.078;11.516;2023-03-23T05:22:40;10.10;93.20
3818;DHT22;1924;48.078;11.516;2023-03-23T05:25:07;10.10;93.10
3818;DHT22;1924;48.078;11.516;2023-03-23T05:27:36;10.10;92.90
3818;DHT22;1924;48.078;11.516;2023-03-23T05:30:03;10.10;93.20
3818;DHT22;1924;48.078;11.516;2023-03-23T05:32:31;10.00;93.20
3818;DHT22;1924;48.078;11.516;2023-03-23T05:34:59;10.10;93.20
3818;DHT22;1924;48.078;11.516;2023-03-23T05:37:27;10.20;93.80
3818;DHT22;1924;48.078;11.516;2023-03-23T05:40:00;10.30;93.70
3818;DHT22;1924;48.078;11.516;2023-03-23T05:42:32;10.30;92.80
3818;DHT22;1924;48.078;11.516;2023-03-23T05:44:59;10.40;93.80
3818;DHT22;1924;48.078;11.516;2023-03-23T05:47:26;10.30;93.00
3818;DHT22;1924;48.078;11.516;2023-03-23T05:49:53;10.30;93.80
3818;DHT22;1924;48.078;11.516;2023-03-23T05:52:21;10.40;94.40
3818;DHT22;1924;48.078;11.516;2023-03-23T05:54:49;10.60;93.60
3818;DHT22;1924;48.078;11.516;2023-03-23T05:57:16;10.70;93.00
3818;DHT22;1924;48.078;11.516;2023-03-23T05:59:43;10.60;93.80
3818;DHT22;1924;48.078;11.516;2023-03-23T06:02:10;10.80;93.60
3818;DHT22;1924;48.078;11.516;2023-03-23T06:04:39;10.90;92.10
3818;DHT22;1924;48.078;11.516;2023-03-23T06:07:06;11.00;91.90
3818;DHT22;1924;48.078;11.516;2023-03-23T06:09:34;11.00;91.60
3818;DHT22;1924;48.078;11.516;2023-03-23T06:12:01;11.00;91.60
3818;DHT22;1924;48.078;11.516;2023-03-23T06:14:30;11.00;91.50
3818;DHT22;1924;48.078;11.516;2023-03-23T06:16:56;11.00;91.20
3818;DHT22;1924;48.078;11.516;2023-03-23T06:19:23;10.90;91.30
3818;DHT22;1924;48.078;11.516;2023-03-23T06:21:52;10.70;91.70
3818;DHT22;1924;48.078;11.516;2023-03-23T06:24:19;10.70;92.60
3818;DHT22;1924;48.078;11.516;2023-03-23T06:26:48;10.60;92.40
3818;DHT22;1924;48.078;11.516;2023-03-23T06:29:15;10.70;92.50
3818;DHT22;1924;48.078;11.516;2023-03-23T06:31:44;10.60;92.30
3818;DHT22;1924;48.078;11.516;2023-03-23T06:34:11;10.70;93.10
3818;DHT22;1924;48.078;11.516;2023-03-23T06:36:38;10.70;92.90
3818;DHT22;1924;48.078;11.516;2023-03-23T06:39:05;10.80;93.30
3818;DHT22;1924;48.078;11.516;2023-03-23T06:41:32;10.80;93.40
3818;DHT22;1924;48.078;11.516;2023-03-23T06:44:01;10.90;93.30
3818;DHT22;1924;48.078;11.516;2023-03-23T06:46:28;11.00;92.50
3818;DHT22;1924;48.078;11.516;2023-03-23T06:48:55;11.10;92.80
3818;DHT22;1924;48.078;11.516;2023-03-23T06:51:22;11.30;92.80
3818;DHT22;1924;48.078;11.516;2023-03-23T06:53:49;11.40;91.80
3818;DHT22;1924;48.078;11.516;2023-03-23T06:56:16;11.50;91.30
3818;DHT22;1924;48.078;11.516;2023-03-23T06:58:43;11.50;91.00
3818;DHT22;1924;48.078;11.516;2023-03-23T07:01:12;11.60;90.80
3818;DHT22;1924;48.078;11.516;2023-03-23T07:03:40;11.80;90.60
3818;DHT22;1924;48.078;11.516;2023-03-23T07:06:08;11.70;90.40
3818;DHT22;1924;48.078;11.516;2023-03-23T07:08:35;11.70;90.90
3818;DHT22;1924;48.078;11.516;2023-03-23T07:11:03;11.70;90.70
3818;DHT22;1924;48.078;11.516;2023-03-23T07:13:30;11.70;90.70
3818;DHT22;1924;48.078;11.516;2023-03-23T07:15:57;11.70;90.40
3818;DHT22;1924;48.078;11.516;2023-03-23T07:18:27;11.70;90.80
3818;DHT22;1924;48.078;11.516;2023-03-23T07:20:54;11.70;90.90
3818;DHT22;1924;48.078;11.516;2023-03-23T07:23:21;11.70;90.90
3818;DHT22;1924;48.078;11.516;2023-03-23T07:25:48;11.70;91.00
3818;DHT22;1924;48.078;11.516;2023-03-23T07:28:15;11.80;90.70
3818;DHT22;1924;48.078;11.516;2023-03-23T07:30:42;11.90;90.90
3818;DHT22;1924;48.078;11.516;2023-03-23T07:33:09;12.00;90.70
3818;DHT22;1924;48.078;11.516;2023-03-23T07:35:37;12.20;90.90
3818;DHT22;1924;48.078;11.516;2023-03-23T07:38:05;12.50;90.80
3818;DHT22;1924;48.078;11.516;2023-03-23T07:40:32;12.70;89.60
3818;DHT22;1924;48.078;11.516;2023-03-23T07:43:00;12.80;89.60
3818;DHT22;1924;48.078;11.516;2023-03-23T07:45:28;12.90;87.90
3818;DHT22;1924;48.078;11.516;2023-03-23T07:47:55;13.10;88.60
3818;DHT22;1924;48.078;11.516;2023-03-23T07:50:22;13.20;88.40
3818;DHT22;1924;48.078;11.516;2023-03-23T07:52:51;13.30;87.60
3818;DHT22;1924;48.078;11.516;2023-03-23T07:55:20;13.50;89.00
3818;DHT22;1924;48.078;11.516;2023-03-23T07:57:47;13.70;86.10
3818;DHT22;1924;48.078;11.516;2023-03-23T08:00:16;13.60;86.40
3818;DHT22;1924;48.078;11.516;2023-03-23T08:02:44;13.60;87.00
3818;DHT22;1924;48.078;11.516;2023-03-23T08:05:11;13.70;85.60
3818;DHT22;1924;48.078;11.516;2023-03-23T08:07:39;13.60;85.10
3818;DHT22;1924;48.078;11.516;2023-03-23T08:10:12;13.60;86.80
3818;DHT22;1924;48.078;11.516;2023-03-23T08:12:40;13.50;86.60
3818;DHT22;1924;48.078;11.516;2023-03-23T08:15:08;13.50;86.30
3818;DHT22;1924;48.078;11.516;2023-03-23T08:17:38;13.50;86.60
3818;DHT22;1924;48.078;11.516;2023-03-23T08:20:07;13.50;84.50
3818;DHT22;1924;48.078;11.516;2023-03-23T08:22:36;13.50;85.20
3818;DHT22;1924;48.078;11.516;2023-03-23T08:25:04;13.50;85.50
3818;DHT22;1924;48.078;11.516;2023-03-23T08:27:33;13.60;85.80
3818;DHT22;1924;48.078;11.516;2023-03-23T08:30:00;13.50;85.20
3818;DHT22;1924;48.078;11.516;2023-03-23T08:32:27;13.50;85.00
3818;DHT22;1924;48.078;11.516;2023-03-23T08:34:53;13.60;84.80
3818;DHT22;1924;48.078;11.516;2023-03-23T08:37:21;13.60;85.30
3818;DHT22;1924;48.078;11.516;2023-03-23T08:39:51;13.60;84.90
3818;DHT22;1924;48.078;11.516;2023-03-23T08:42:18;13.60;84.70
3818;DHT22;1924;48.078;11.516;2023-03-23T08:44:46;13.70;85.00
3818;DHT22;1924;48.078;11.516;2023-03-23T08:47:13;13.70;83.80
3818;DHT22;1924;48.078;11.516;2023-03-23T08:49:40;13.80;83.10
3818;DHT22;1924;48.078;11.516;2023-03-23T08:52:08;14.00;84.50
3818;DHT22;1924;48.078;11.516;2023-03-23T08:54:35;14.20;83.50
3818;DHT22;1924;48.078;11.516;2023-03-23T08:57:02;14.20;83.00
3818;DHT22;1924;48.078;11.516;2023-03-23T08:59:29;14.20;85.00
3818;DHT22;1924;48.078;11.516;2023-03-23T09:01:57;14.30;85.10
3818;DHT22;1924;48.078;11.516;2023-03-23T09:04:24;14.40;84.60
3818;DHT22;1924;48.078;11.516;2023-03-23T09:06:51;14.40;83.00
3818;DHT22;1924;48.078;11.516;2023-03-23T09:09:18;14.50;83.50
3818;DHT22;1924;48.078;11.516;2023-03-23T09:11:46;14.60;85.60
3818;DHT22;1924;48.078;11.516;2023-03-23T09:14:13;14.70;84.90
3818;DHT22;1924;48.078;11.516;2023-03-23T09:16:39;14.70;84.00
3818;DHT22;1924;48.078;11.516;2023-03-23T09:19:08;14.80;84.80
3818;DHT22;1924;48.078;11.516;2023-03-23T09:21:35;14.80;84.50
3818;DHT22;1924;48.078;11.516;2023-03-23T09:24:03;14.80;83.10
3818;DHT22;1924;48.078;11.516;2023-03-23T09:26:30;14.80;81.90
3818;DHT22;1924;48.078;11.516;2023-03-23T09:28:58;14.80;81.30
3818;DHT22;1924;48.078;11.516;2023-03-23T09:31:24;14.80;80.50
3818;DHT22;1924;48.078;11.516;2023-03-23T09:33:53;14.90;81.90
3818;DHT22;1924;48.078;11.516;2023-03-23T09:36:23;15.00;82.50
3818;DHT22;1924;48.078;11.516;2023-03-23T09:38:51;15.10;81.40
3818;DHT22;1924;48.078;11.516;2023-03-23T09:41:33;15.10;81.30
3818;DHT22;1924;48.078;11.516;2023-03-23T09:44:07;15.10;80.70
3818;DHT22;1924;48.078;11.516;2023-03-23T09:46:46;15.20;81.60
3818;DHT22;1924;48.078;11.516;2023-03-23T09:49:18;15.20;81.90
3818;DHT22;1924;48.078;11.516;2023-03-23T09:51:50;15.30;82.30
3818;DHT22;1924;48.078;11.516;2023-03-23T09:54:21;15.30;83.50
3818;DHT22;1924;48.078;11.516;2023-03-23T09:56:50;15.50;84.00
3818;DHT22;1924;48.078;11.516;2023-03-23T09:59:21;15.70;85.10
3818;DHT22;1924;48.078;11.516;2023-03-23T10:01:51;15.90;85.60
3818;DHT22;1924;48.078;11.516;2023-03-23T10:04:31;16.10;85.40
3818;DHT22;1924;48.078;11.516;2023-03-23T10:07:08;16.20;83.50
3818;DHT22;1924;48.078;11.516;2023-03-23T10:09:36;16.30;85.80
3818;DHT22;1924;48.078;11.516;2023-03-23T10:12:10;16.40;82.50
3818;DHT22;1924;48.078;11.516;2023-03-23T10:14:52;16.30;81.40
3818;DHT22;1924;48.078;11.516;2023-03-23T10:17:24;16.30;81.80
3818;DHT22;1924;48.078;11.516;2023-03-23T10:19:57;16.20;82.50
3818;DHT22;1924;48.078;11.516;2023-03-23T10:22:34;16.10;80.70
3818;DHT22;1924;48.078;11.516;2023-03-23T10:25:15;16.00;81.80
3818;DHT22;1924;48.078;11.516;2023-03-23T10:27:45;15.90;80.00
3818;DHT22;1924;48.078;11.516;2023-03-23T10:30:18;15.80;79.30
3818;DHT22;1924;48.078;11.516;2023-03-23T10:32:50;15.70;79.20
3818;DHT22;1924;48.078;11.516;2023-03-23T10:35:21;15.70;80.40
3818;DHT22;1924;48.078;11.516;2023-03-23T10:37:56;15.80;81.40
3818;DHT22;1924;48.078;11.516;2023-03-23T10:40:27;15.80;80.20
3818;DHT22;1924;48.078;11.516;2023-03-23T10:42:55;15.80;80.20
3818;DHT22;1924;48.078;11.516;2023-03-23T10:45:28;15.80;79.40
3818;DHT22;1924;48.078;11.516;2023-03-23T10:48:01;15.80;79.70
3818;DHT22;1924;48.078;11.516;2023-03-23T10:50:35;15.80;80.60
3818;DHT22;1924;48.078;11.516;2023-03-23T10:53:13;15.90;81.40
3818;DHT22;1924;48.078;11.516;2023-03-23T10:55:44;16.00;81.00
3818;DHT22;1924;48.078;11.516;2023-03-23T10:58:21;16.10;80.80
3818;DHT22;1924;48.078;11.516;2023-03-23T11:00:49;16.10;79.40
3818;DHT22;1924;48.078;11.516;2023-03-23T11:03:25;16.20;79.70
3818;DHT22;1924;48.078;11.516;2023-03-23T11:05:56;16.20;78.70
3818;DHT22;1924;48.078;11.516;2023-03-23T11:08:27;16.20;78.80
3818;DHT22;1924;48.078;11.516;2023-03-23T11:10:57;16.30;79.70
3818;DHT22;1924;48.078;11.516;2023-03-23T11:13:29;16.30;79.10
3818;DHT22;1924;48.078;11.516;2023-03-23T11:15:56;16.30;76.70
3818;DHT22;1924;48.078;11.516;2023-03-23T11:18:25;16.30;76.00
3818;DHT22;1924;48.078;11.516;2023-03-23T11:20:55;16.30;77.20
3818;DHT22;1924;48.078;11.516;2023-03-23T11:23:26;16.30;77.50
3818;DHT22;1924;48.078;11.516;2023-03-23T11:25:57;16.20;77.80
3818;DHT22;1924;48.078;11.516;2023-03-23T11:28:31;16.20;78.40
3818;DHT22;1924;48.078;11.516;2023-03-23T11:31:00;16.20;77.00
3818;DHT22;1924;48.078;11.516;2023-03-23T11:33:30;16.40;77.90
3818;DHT22;1924;48.078;11.516;2023-03-23T11:35:57;16.50;77.20
3818;DHT22;1924;48.078;11.516;2023-03-23T11:38:25;16.60;77.10
3818;DHT22;1924;48.078;11.516;2023-03-23T11:40:53;16.70;75.10
3818;DHT22;1924;48.078;11.516;2023-03-23T11:43:22;16.70;74.20
3818;DHT22;1924;48.078;11.516;2023-03-23T11:45:58;16.70;72.40
3818;DHT22;1924;48.078;11.516;2023-03-23T11:48:30;16.80;73.70
3818;DHT22;1924;48.078;11.516;2023-03-23T11:51:02;16.90;74.30
3818;DHT22;1924;48.078;11.516;2023-03-23T11:53:39;17.00;73.70
3818;DHT22;1924;48.078;11.516;2023-03-23T11:56:15;17.20;73.80
3818;DHT22;1924;48.078;11.516;2023-03-23T11:58:44;17.30;72.80
3818;DHT22;1924;48.078;11.516;2023-03-23T12:01:21;17.40;71.90
3818;DHT22;1924;48.078;11.516;2023-03-23T12:04:14;17.40;71.90
3818;DHT22;1924;48.078;11.516;2023-03-23T12:06:48;17.40;72.10
3818;DHT22;1924;48.078;11.516;2023-03-23T12:09:29;17.50;71.90
3818;DHT22;1924;48.078;11.516;2023-03-23T12:12:09;17.60;76.80
3818;DHT22;1924;48.078;11.516;2023-03-23T12:14:46;17.80;81.10
3818;DHT22;1924;48.078;11.516;2023-03-23T12:17:24;17.80;72.60
3818;DHT22;1924;48.078;11.516;2023-03-23T12:20:02;17.80;72.90
3818;DHT22;1924;48.078;11.516;2023-03-23T12:22:41;18.10;73.70
3818;DHT22;1924;48.078;11.516;2023-03-23T12:25:22;18.20;69.40
3818;DHT22;1924;48.078;11.516;2023-03-23T12:27:53;18.30;71.10
3818;DHT22;1924;48.078;11.516;2023-03-23T12:30:30;18.20;69.40
3818;DHT22;1924;48.078;11.516;2023-03-23T12:33:10;18.20;68.90
3818;DHT22;1924;48.078;11.516;2023-03-23T12:35:48;18.10;67.70
3818;DHT22;1924;48.078;11.516;2023-03-23T12:38:34;18.10;69.30
3818;DHT22;1924;48.078;11.516;2023-03-23T12:41:15;18.20;68.00
3818;DHT22;1924;48.078;11.516;2023-03-23T12:43:48;18.20;65.50
3818;DHT22;1924;48.078;11.516;2023-03-23T12:46:32;18.10;66.10
3818;DHT22;1924;48.078;11.516;2023-03-23T12:49:05;17.90;63.90
3818;DHT22;1924;48.078;11.516;2023-03-23T12:51:37;17.80;64.00
3818;DHT22;1924;48.078;11.516;2023-03-23T12:54:12;17.70;64.80
3818;DHT22;1924;48.078;11.516;2023-03-23T12:56:52;17.80;64.70
3818;DHT22;1924;48.078;11.516;2023-03-23T12:59:23;17.80;65.50
3818;DHT22;1924;48.078;11.516;2023-03-23T13:01:54;17.80;63.20
3818;DHT22;1924;48.078;11.516;2023-03-23T13:04:25;17.70;64.30
3818;DHT22;1924;48.078;11.516;2023-03-23T13:06:53;17.80;64.20
3818;DHT22;1924;48.078;11.516;2023-03-23T13:09:26;17.80;63.50
3818;DHT22;1924;48.078;11.516;2023-03-23T13:11:57;17.70;62.00
3818;DHT22;1924;48.078;11.516;2023-03-23T13:14:34;17.70;63.00
3818;DHT22;1924;48.078;11.516;2023-03-23T13:17:11;17.60;64.10
3818;DHT22;1924;48.078;11.516;2023-03-23T13:19:56;17.50;64.20
3818;DHT22;1924;48.078;11.516;2023-03-23T13:22:27;17.50;64.90
3818;DHT22;1924;48.078;11.516;2023-03-23T13:25:00;17.50;63.60
3818;DHT22;1924;48.078;11.516;2023-03-23T13:27:29;17.40;64.40
3818;DHT22;1924;48.078;11.516;2023-03-23T13:30:18;17.40;64.90
3818;DHT22;1924;48.078;11.516;2023-03-23T13:32:46;17.40;64.10
3818;DHT22;1924;48.078;11.516;2023-03-23T13:35:20;17.40;64.20
3818;DHT22;1924;48.078;11.516;2023-03-23T13:38:12;17.50;64.50
3818;DHT22;1924;48.078;11.516;2023-03-23T13:40:43;17.50;66.00
3818;DHT22;1924;48.078;11.516;2023-03-23T13:43:12;17.60;63.80
3818;DHT22;1924;48.078;11.516;2023-03-23T13:45:44;17.60;68.30
3818;DHT22;1924;48.078;11.516;2023-03-23T13:48:23;17.60;68.10
3818;DHT22;1924;48.078;11.516;2023-03-23T13:50:53;17.60;65.90
3818;DHT22;1924;48.078;11.516;2023-03-23T13:53:24;17.60;65.50
3818;DHT22;1924;48.078;11.516;2023-03-23T13:56:05;17.60;66.30
3818;DHT22;1924;48.078;11.516;2023-03-23T13:58:47;17.50;66.40
3818;DHT22;1924;48.078;11.516;2023-03-23T14:01:16;17.50;66.40
3818;DHT22;1924;48.078;11.516;2023-03-23T14:03:46;17.70;65.80
3818;DHT22;1924;48.078;11.516;2023-03-23T14:06:18;17.60;64.60
3818;DHT22;1924;48.078;11.516;2023-03-23T14:08:48;17.60;66.20
3818;DHT22;1924;48.078;11.516;2023-03-23T14:11:19;17.60;65.90
3818;DHT22;1924;48.078;11.516;2023-03-23T14:13:58;17.60;67.40
3818;DHT22;1924;48.078;11.516;2023-03-23T14:16:32;17.50;67.30
3818;DHT22;1924;48.078;11.516;2023-03-23T14:19:11;17.40;67.70
3818;DHT22;1924;48.078;11.516;2023-03-23T14:21:42;17.40;68.50
3818;DHT22;1924;48.078;11.516;2023-03-23T14:24:12;17.30;69.30
3818;DHT22;1924;48.078;11.516;2023-03-23T14:26:39;17.20;68.00
3818;DHT22;1924;48.078;11.516;2023-03-23T14:29:11;17.20;68.00
3818;DHT22;1924;48.078;11.516;2023-03-23T14:31:38;17.00;68.20
3818;DHT22;1924;48.078;11.516;2023-03-23T14:34:13;17.00;69.20
3818;DHT22;1924;48.078;11.516;2023-03-23T14:36:40;17.00;69.20
3818;DHT22;1924;48.078;11.516;2023-03-23T14:39:17;17.00;69.20
3818;DHT22;1924;48.078;11.516;2023-03-23T14:41:46;17.00;70.10
3818;DHT22;1924;48.078;11.516;2023-03-23T14:44:16;17.10;69.30
3818;DHT22;1924;48.078;11.516;2023-03-23T14:46:44;17.10;70.00
3818;DHT22;1924;48.078;11.516;2023-03-23T14:49:14;17.20;69.10
3818;DHT22;1924;48.078;11.516;2023-03-23T14:51:47;17.20;69.20
3818;DHT22;1924;48.078;11.516;2023-03-23T14:54:14;17.10;70.70
3818;DHT22;1924;48.078;11.516;2023-03-23T14:56:41;17.10;71.00
3818;DHT22;1924;48.078;11.516;2023-03-23T14:59:10;17.00;69.80
3818;DHT22;1924;48.078;11.516;2023-03-23T15:01:40;17.00;70.60
3818;DHT22;1924;48.078;11.516;2023-03-23T15:04:11;16.90;71.20
3818;DHT22;1924;48.078;11.516;2023-03-23T15:06:41;16.90;71.40
3818;DHT22;1924;48.078;11.516;2023-03-23T15:09:13;16.80;72.20
3818;DHT22;1924;48.078;11.516;2023-03-23T15:11:41;16.90;73.10
3818;DHT22;1924;48.078;11.516;2023-03-23T15:14:13;16.80;72.70
3818;DHT22;1924;48.078;11.516;2023-03-23T15:16:45;16.70;71.20
3818;DHT22;1924;48.078;11.516;2023-03-23T15:19:16;16.70;71.80
3818;DHT22;1924;48.078;11.516;2023-03-23T15:21:49;16.70;71.80
3818;DHT22;1924;48.078;11.516;2023-03-23T15:24:27;16.80;71.50
3818;DHT22;1924;48.078;11.516;2023-03-23T15:27:10;16.70;71.60
3818;DHT22;1924;48.078;11.516;2023-03-23T15:29:47;16.70;71.70
3818;DHT22;1924;48.078;11.516;2023-03-23T15:32:25;16.60;71.30
3818;DHT22;1924;48.078;11.516;2023-03-23T15:34:53;16.60;72.50
3818;DHT22;1924;48.078;11.516;2023-03-23T15:37:24;16.70;72.10
3818;DHT22;1924;48.078;11.516;2023-03-23T15:39:51;16.60;70.80
3818;DHT22;1924;48.078;11.516;2023-03-23T15:42:30;16.50;72.70
3818;DHT22;1924;48.078;11.516;2023-03-23T15:45:22;16.50;73.60
3818;DHT22;1924;48.078;11.516;2023-03-23T15:47:52;16.30;73.50
3818;DHT22;1924;48.078;11.516;2023-03-23T15:50:32;16.40;73.70
3818;DHT22;1924;48.078;11.516;2023-03-23T15:53:00;16.30;72.80
3818;DHT22;1924;48.078;11.516;2023-03-23T15:55:35;16.30;73.20
3818;DHT22;1924;48.078;11.516;2023-03-23T15:58:09;16.30;73.80
3818;DHT22;1924;48.078;11.516;2023-03-23T16:00:37;16.30;74.00
3818;DHT22;1924;48.078;11.516;2023-03-23T16:03:08;16.20;74.60
3818;DHT22;1924;48.078;11.516;2023-03-23T16:05:36;16.10;74.50
3818;DHT22;1924;48.078;11.516;2023-03-23T16:08:04;16.10;75.00
3818;DHT22;1924;48.078;11.516;2023-03-23T16:10:31;16.10;75.50
3818;DHT22;1924;48.078;11.516;2023-03-23T16:12:57;16.00;75.50
3818;DHT22;1924;48.078;11.516;2023-03-23T16:15:24;15.90;75.80
3818;DHT22;1924;48.078;11.516;2023-03-23T16:17:51;15.90;75.90
3818;DHT22;1924;48.078;11.516;2023-03-23T16:20:21;15.90;76.60
3818;DHT22;1924;48.078;11.516;2023-03-23T16:22:49;15.80;77.40
3818;DHT22;1924;48.078;11.516;2023-03-23T16:25:17;15.80;79.60
3818;DHT22;1924;48.078;11.516;2023-03-23T16:27:44;15.70;80.00
3818;DHT22;1924;48.078;11.516;2023-03-23T16:30:16;15.70;82.00
3818;DHT22;1924;48.078;11.516;2023-03-23T16:32:43;15.60;84.60
3818;DHT22;1924;48.078;11.516;2023-03-23T16:35:11;15.50;87.80
3818;DHT22;1924;48.078;11.516;2023-03-23T16:37:43;15.40;90.30
3818;DHT22;1924;48.078;11.516;2023-03-23T16:40:11;15.30;90.00
3818;DHT22;1924;48.078;11.516;2023-03-23T16:42:38;15.20;91.80
3818;DHT22;1924;48.078;11.516;2023-03-23T16:45:07;15.10;92.60
3818;DHT22;1924;48.078;11.516;2023-03-23T16:47:34;15.00;93.10
3818;DHT22;1924;48.078;11.516;2023-03-23T16:50:01;14.90;94.20
3818;DHT22;1924;48.078;11.516;2023-03-23T16:52:28;14.90;94.10
3818;DHT22;1924;48.078;11.516;2023-03-23T16:54:56;14.80;95.10
3818;DHT22;1924;48.078;11.516;2023-03-23T16:57:23;14.70;95.20
3818;DHT22;1924;48.078;11.516;2023-03-23T16:59:50;14.70;95.50
3818;DHT22;1924;48.078;11.516;2023-03-23T17:02:20;14.70;95.50
3818;DHT22;1924;48.078;11.516;2023-03-23T17:04:47;14.70;95.80